createdAt,value
2018-12-04T00:00:35.248Z,57.69
2018-12-04T00:03:03.929Z,57.52
2018-12-04T00:05:31.604Z,57.20
2018-12-04T00:07:59.209Z,57.63
2018-12-04T00:10:26.861Z,57.66
2018-12-04T00:12:54.427Z,57.67
2018-12-04T00:15:22.083Z,57.98
2018-12-04T00:17:49.717Z,58.39
2018-12-04T00:20:17.331Z,58.30
2018-12-04T00:22:45.131Z,57.83
2018-12-04T00:25:12.731Z,58.23
2018-12-04T00:27:40.338Z,58.08
2018-12-04T00:30:08.317Z,58.02
2018-12-04T00:32:35.943Z,58.38
2018-12-04T00:35:03.843Z,58.52
2018-12-04T00:37:31.467Z,58.12
2018-12-04T00:39:59.086Z,58.72
2018-12-04T00:42:26.717Z,58.64
2018-12-04T00:44:54.373Z,58.30
2018-12-04T00:47:21.948Z,58.32
2018-12-04T00:49:49.540Z,58.25
2018-12-04T00:52:17.102Z,58.70
2018-12-04T00:54:44.745Z,59.03
2018-12-04T00:57:12.391Z,59.01
2018-12-04T00:59:40.013Z,58.88
2018-12-04T01:02:07.597Z,58.71
2018-12-04T01:04:35.160Z,59.23
2018-12-04T01:07:02.860Z,59.06
2018-12-04T01:09:30.516Z,58.96
2018-12-04T01:11:58.130Z,59.02
2018-12-04T01:14:25.763Z,58.93
2018-12-04T01:16:53.418Z,58.91
2018-12-04T01:19:21.063Z,58.71
2018-12-04T01:21:48.721Z,58.76
2018-12-04T01:24:16.616Z,58.88
2018-12-04T01:26:44.211Z,58.97
2018-12-04T01:29:11.784Z,58.62
2018-12-04T01:31:39.481Z,59.52
2018-12-04T01:34:07.099Z,59.48
2018-12-04T01:36:34.660Z,59.49
2018-12-04T01:39:02.408Z,60.04
2018-12-04T01:41:30.005Z,59.86
2018-12-04T01:43:57.675Z,59.95
2018-12-04T01:46:25.265Z,59.82
2018-12-04T01:48:52.955Z,59.71
2018-12-04T01:51:20.592Z,59.41
2018-12-04T01:53:48.168Z,59.79
2018-12-04T01:56:15.793Z,60.10
2018-12-04T01:58:43.412Z,60.00
2018-12-04T02:01:11.003Z,60.22
2018-12-04T02:03:38.616Z,59.81
2018-12-04T02:06:06.279Z,60.51
2018-12-04T02:08:33.908Z,60.37
2018-12-04T02:11:01.635Z,60.09
2018-12-04T02:13:29.232Z,60.20
2018-12-04T02:15:56.827Z,60.45
2018-12-04T02:18:24.516Z,60.45
2018-12-04T02:20:52.188Z,60.33
2018-12-04T02:23:19.947Z,60.68
2018-12-04T02:25:47.536Z,60.68
2018-12-04T02:28:15.149Z,60.41
2018-12-04T02:30:42.735Z,60.64
2018-12-04T02:33:10.315Z,61.08
2018-12-04T02:35:37.906Z,60.83
2018-12-04T02:38:05.491Z,61.21
2018-12-04T02:40:33.610Z,60.71
2018-12-04T02:43:01.253Z,60.82
2018-12-04T02:45:28.949Z,60.53
2018-12-04T02:47:56.497Z,60.18
2018-12-04T02:50:24.100Z,60.26
2018-12-04T02:52:51.757Z,60.31
2018-12-04T02:55:19.388Z,60.47
2018-12-04T02:57:47.055Z,60.06
2018-12-04T03:00:14.642Z,60.28
2018-12-04T03:02:42.228Z,60.60
2018-12-04T03:05:09.883Z,60.84
2018-12-04T03:07:37.511Z,60.32
2018-12-04T03:10:06.122Z,60.57
2018-12-04T03:12:33.826Z,60.36
2018-12-04T03:15:01.421Z,60.61
2018-12-04T03:17:28.994Z,60.68
2018-12-04T03:19:56.632Z,60.27
2018-12-04T03:22:24.192Z,60.18
2018-12-04T03:24:51.975Z,60.35
2018-12-04T03:27:19.567Z,60.18
2018-12-04T03:29:47.167Z,60.61
2018-12-04T03:32:14.817Z,60.94
2018-12-04T03:34:42.395Z,61.37
2018-12-04T03:37:10.204Z,61.08
2018-12-04T03:39:37.813Z,60.54
2018-12-04T03:42:05.516Z,60.44
2018-12-04T03:44:33.128Z,60.44
2018-12-04T03:47:00.738Z,60.46
2018-12-04T03:49:28.372Z,60.31
2018-12-04T03:51:56.031Z,60.34
2018-12-04T03:54:23.644Z,60.32
2018-12-04T03:56:51.300Z,60.48
2018-12-04T03:59:19.006Z,60.35
2018-12-04T04:01:46.599Z,60.37
2018-12-04T04:04:14.227Z,60.13
2018-12-04T04:06:41.939Z,60.30
2018-12-04T04:09:09.508Z,60.24
2018-12-04T04:11:37.089Z,60.27
2018-12-04T04:14:04.725Z,60.27
2018-12-04T04:16:32.273Z,60.20
2018-12-04T04:18:59.880Z,60.06
2018-12-04T04:21:27.510Z,60.47
2018-12-04T04:23:55.141Z,60.31
2018-12-04T04:26:22.826Z,60.98
2018-12-04T04:28:50.547Z,61.30
2018-12-04T04:31:18.185Z,61.51
2018-12-04T04:33:45.828Z,61.28
2018-12-04T04:36:13.443Z,61.51
2018-12-04T04:38:41.092Z,61.26
2018-12-04T04:41:08.750Z,60.81
2018-12-04T04:43:36.344Z,61.07
2018-12-04T04:46:04.001Z,61.25
2018-12-04T04:48:31.614Z,61.51
2018-12-04T04:50:59.442Z,61.35
2018-12-04T04:53:27.048Z,61.31
2018-12-04T04:55:54.585Z,60.97
2018-12-04T04:58:22.548Z,61.22
2018-12-04T05:00:50.135Z,61.03
2018-12-04T05:03:17.723Z,60.81
2018-12-04T05:05:45.488Z,61.22
2018-12-04T05:08:13.081Z,61.08
2018-12-04T05:10:40.711Z,61.34
2018-12-04T05:13:08.393Z,60.96
2018-12-04T05:15:35.992Z,61.34
2018-12-04T05:18:03.584Z,61.25
2018-12-04T05:20:31.195Z,61.07
2018-12-04T05:22:58.971Z,61.15
2018-12-04T05:25:26.562Z,61.24
2018-12-04T05:27:54.188Z,61.23
2018-12-04T05:30:21.919Z,61.82
2018-12-04T05:32:49.504Z,61.13
2018-12-04T05:35:17.097Z,60.83
2018-12-04T05:37:44.729Z,60.81
2018-12-04T05:40:12.344Z,61.02
2018-12-04T05:42:40.357Z,61.19
2018-12-04T05:45:08.425Z,60.08
2018-12-04T05:47:36.038Z,60.05
2018-12-04T05:50:04.723Z,59.66
2018-12-04T05:52:32.382Z,59.38
2018-12-04T05:55:00.017Z,59.44
2018-12-04T05:57:27.790Z,59.11
2018-12-04T05:59:55.453Z,59.25
2018-12-04T06:02:23.055Z,59.24
2018-12-04T06:04:50.706Z,58.92
2018-12-04T06:07:18.328Z,58.49
2018-12-04T06:09:49.097Z,59.00
2018-12-04T06:12:16.674Z,58.65
2018-12-04T06:14:44.260Z,58.42
2018-12-04T06:17:11.894Z,58.42
2018-12-04T06:19:39.497Z,58.70
2018-12-04T06:22:07.102Z,58.94
2018-12-04T06:24:34.776Z,59.20
2018-12-04T06:27:02.544Z,58.93
2018-12-04T06:29:30.284Z,58.88
2018-12-04T06:31:57.906Z,59.10
2018-12-04T06:34:25.579Z,59.02
2018-12-04T06:36:53.297Z,59.94
2018-12-04T06:39:20.896Z,59.79
2018-12-04T06:41:48.581Z,59.69
2018-12-04T06:44:16.226Z,60.03
2018-12-04T06:46:43.836Z,59.82
2018-12-04T06:49:11.580Z,60.29
2018-12-04T06:51:39.228Z,59.91
2018-12-04T06:54:06.872Z,59.75
2018-12-04T06:56:34.579Z,60.27
2018-12-04T06:59:02.171Z,60.38
2018-12-04T07:01:29.803Z,61.07
2018-12-04T07:03:57.489Z,60.93
2018-12-04T07:06:25.133Z,60.80
2018-12-04T07:08:52.728Z,60.65
2018-12-04T07:11:20.359Z,60.60
2018-12-04T07:13:47.980Z,60.91
2018-12-04T07:16:18.750Z,60.60
2018-12-04T07:18:46.400Z,60.68
2018-12-04T07:21:14.097Z,60.25
2018-12-04T07:23:41.824Z,59.92
2018-12-04T07:26:09.432Z,60.02
2018-12-04T07:28:37.047Z,59.94
2018-12-04T07:31:05.214Z,59.76
2018-12-04T07:33:56.625Z,59.42
2018-12-04T07:36:24.360Z,59.58
2018-12-04T07:38:52.505Z,59.41
2018-12-04T07:41:20.905Z,59.40
2018-12-04T07:43:48.538Z,59.16
2018-12-04T07:46:16.165Z,59.19
2018-12-04T07:49:00.829Z,58.86
2018-12-04T07:51:28.444Z,58.88
2018-12-04T07:53:56.067Z,59.08
2018-12-04T07:56:23.669Z,59.07
2018-12-04T07:58:51.425Z,59.11
2018-12-04T08:01:19.044Z,59.16
2018-12-04T08:03:46.806Z,58.90
2018-12-04T08:06:14.552Z,58.83
2018-12-04T08:08:42.211Z,58.71
2018-12-04T08:11:09.882Z,58.75
2018-12-04T08:13:37.593Z,58.49
2018-12-04T08:16:05.234Z,58.71
2018-12-04T08:18:32.948Z,58.55
2018-12-04T08:21:00.662Z,58.60
2018-12-04T08:23:28.244Z,58.46
2018-12-04T08:25:55.884Z,58.36
2018-12-04T08:28:23.500Z,58.38
2018-12-04T08:33:46.023Z,58.19
2018-12-04T08:36:13.608Z,58.18
2018-12-04T08:38:41.196Z,58.17
2018-12-04T08:41:08.837Z,57.84
2018-12-04T08:43:36.422Z,57.77
2018-12-04T08:46:04.020Z,57.34
2018-12-04T08:48:31.674Z,57.20
2018-12-04T08:50:59.326Z,57.44
2018-12-04T08:53:26.983Z,56.73
2018-12-04T08:55:55.571Z,57.32
2018-12-04T08:58:23.172Z,57.13
2018-12-04T09:00:50.762Z,57.29
2018-12-04T09:03:18.372Z,57.16
2018-12-04T09:05:46.084Z,57.34
2018-12-04T09:08:13.817Z,57.30
2018-12-04T09:10:41.659Z,56.71
2018-12-04T09:13:09.259Z,56.78
2018-12-04T09:15:36.906Z,56.72
2018-12-04T09:18:04.642Z,56.63
2018-12-04T09:20:32.291Z,56.69
2018-12-04T09:22:59.887Z,56.30
2018-12-04T09:25:27.498Z,56.17
2018-12-04T09:27:55.913Z,56.50
2018-12-04T09:30:23.670Z,56.71
2018-12-04T09:32:51.285Z,56.63
2018-12-04T09:35:18.981Z,56.71
2018-12-04T09:37:49.465Z,56.66
2018-12-04T09:40:17.059Z,56.48
2018-12-04T09:42:44.734Z,56.13
2018-12-04T09:45:12.372Z,56.64
2018-12-04T09:47:40.047Z,56.41
2018-12-04T09:50:08.182Z,56.61
2018-12-04T09:52:35.790Z,56.55
2018-12-04T09:55:03.610Z,56.56
2018-12-04T09:57:31.243Z,56.19
2018-12-04T09:59:58.824Z,56.10
2018-12-04T10:02:26.611Z,56.28
2018-12-04T10:04:54.241Z,56.06
2018-12-04T10:07:21.805Z,56.29
2018-12-04T10:09:49.521Z,56.02
2018-12-04T10:12:17.315Z,56.33
2018-12-04T10:14:44.962Z,55.94
2018-12-04T10:17:12.696Z,55.92
2018-12-04T10:19:40.329Z,55.71
2018-12-04T10:22:07.948Z,55.76
2018-12-04T10:24:35.661Z,55.22
2018-12-04T10:27:03.302Z,55.68
2018-12-04T10:29:30.961Z,55.54
2018-12-04T10:31:58.682Z,55.40
2018-12-04T10:34:26.304Z,55.90
2018-12-04T10:36:53.915Z,55.85
2018-12-04T10:39:21.594Z,55.80
2018-12-04T10:41:49.227Z,56.19
2018-12-04T10:44:16.805Z,55.95
2018-12-04T10:46:44.467Z,56.08
2018-12-04T10:49:12.143Z,56.02
2018-12-04T10:51:39.788Z,56.09
2018-12-04T10:54:07.456Z,56.18
2018-12-04T10:56:35.091Z,55.96
2018-12-04T10:59:02.688Z,56.01
2018-12-04T11:01:35.758Z,55.97
2018-12-04T11:04:03.386Z,56.09
2018-12-04T11:06:31.031Z,55.90
2018-12-04T11:08:58.702Z,55.97
2018-12-04T11:11:26.365Z,55.89
2018-12-04T11:13:59.768Z,56.62
2018-12-04T11:16:31.554Z,56.41
2018-12-04T11:18:59.173Z,56.71
2018-12-04T11:21:26.856Z,56.92
2018-12-04T11:23:54.535Z,57.10
2018-12-04T11:26:22.209Z,56.87
2018-12-04T11:28:49.896Z,56.33
2018-12-04T11:31:17.685Z,56.57
2018-12-04T11:33:45.269Z,57.06
2018-12-04T11:36:13.004Z,57.23
2018-12-04T11:38:40.555Z,56.55
2018-12-04T11:41:08.113Z,55.66
2018-12-04T11:43:35.756Z,56.11
2018-12-04T11:46:03.547Z,55.50
2018-12-04T11:48:31.145Z,56.59
2018-12-04T11:51:00.282Z,55.33
2018-12-04T11:53:28.286Z,57.03
2018-12-04T11:55:55.948Z,57.07
2018-12-04T11:58:23.661Z,56.71
2018-12-04T12:00:51.395Z,56.29
2018-12-04T12:03:19.125Z,56.51
2018-12-04T12:05:46.766Z,56.79
2018-12-04T12:08:14.480Z,56.57
2018-12-04T12:10:42.085Z,56.56
2018-12-04T12:13:09.754Z,57.02
2018-12-04T12:15:37.418Z,56.99
2018-12-04T12:18:05.090Z,57.48
2018-12-04T12:20:32.770Z,56.50
2018-12-04T12:23:00.444Z,57.04
2018-12-04T12:25:28.145Z,57.25
2018-12-04T12:27:55.771Z,57.14
2018-12-04T12:30:23.468Z,56.35
2018-12-04T12:32:51.146Z,56.64
2018-12-04T12:35:18.748Z,55.84
2018-12-04T12:37:46.373Z,55.88
2018-12-04T12:40:14.055Z,55.78
2018-12-04T12:42:41.722Z,55.12
2018-12-04T12:45:10.377Z,55.55
2018-12-04T12:47:38.443Z,54.84
2018-12-04T12:50:07.931Z,55.90
2018-12-04T12:52:35.545Z,55.60
2018-12-04T12:55:03.223Z,55.83
2018-12-04T12:57:30.898Z,54.93
2018-12-04T12:59:58.581Z,55.42
2018-12-04T13:02:26.259Z,54.77
2018-12-04T13:04:53.810Z,54.71
2018-12-04T13:07:22.391Z,55.01
2018-12-04T13:09:50.296Z,54.72
2018-12-04T13:12:17.924Z,54.78
2018-12-04T13:14:45.548Z,55.34
2018-12-04T13:17:13.164Z,55.14
2018-12-04T13:19:40.815Z,54.86
2018-12-04T13:22:08.494Z,55.12
2018-12-04T13:24:36.122Z,55.18
2018-12-04T13:27:03.797Z,54.65
2018-12-04T13:29:38.140Z,55.13
2018-12-04T13:32:05.810Z,54.68
2018-12-04T13:34:33.604Z,55.25
2018-12-04T13:37:01.182Z,55.27
2018-12-04T13:39:28.795Z,55.43
2018-12-04T13:41:56.458Z,55.39
2018-12-04T13:44:24.098Z,55.82
2018-12-04T13:46:51.701Z,54.79
2018-12-04T13:49:19.506Z,55.20
2018-12-04T13:51:49.342Z,54.82
2018-12-04T13:54:17.228Z,55.14
2018-12-04T13:56:44.983Z,55.21
2018-12-04T13:59:12.649Z,55.03
2018-12-04T14:01:40.685Z,54.91
2018-12-04T14:04:08.397Z,54.97
2018-12-04T14:06:36.077Z,55.46
2018-12-04T14:09:08.392Z,55.03
2018-12-04T14:11:36.125Z,54.86
2018-12-04T14:14:03.755Z,55.25
2018-12-04T14:16:31.373Z,55.10
2018-12-04T14:18:59.067Z,55.16
2018-12-04T14:21:26.921Z,54.80
2018-12-04T14:23:54.559Z,54.96
2018-12-04T14:26:22.220Z,55.07
2018-12-04T14:28:49.846Z,55.03
2018-12-04T14:31:17.535Z,55.13
2018-12-04T14:33:45.216Z,55.14
2018-12-04T14:36:13.559Z,55.66
2018-12-04T14:38:46.854Z,54.94
2018-12-04T14:41:18.875Z,55.45
2018-12-04T14:43:46.746Z,55.13
2018-12-04T14:46:14.396Z,55.24
2018-12-04T14:48:42.121Z,55.44
2018-12-04T14:51:09.858Z,54.89
2018-12-04T14:53:38.171Z,55.11
2018-12-04T14:56:09.292Z,55.89
2018-12-04T15:01:57.812Z,55.28
2018-12-04T15:04:25.548Z,55.94
2018-12-04T15:06:53.187Z,55.50
2018-12-04T15:09:21.142Z,56.09
2018-12-04T15:11:54.677Z,56.08
2018-12-04T15:14:29.272Z,56.06
2018-12-04T15:16:56.925Z,55.92
2018-12-04T15:23:24.158Z,55.61
2018-12-04T15:25:51.753Z,55.75
2018-12-04T15:28:19.649Z,55.90
2018-12-04T15:30:47.299Z,55.81
2018-12-04T15:33:15.012Z,55.93
2018-12-04T15:35:42.693Z,55.90
2018-12-04T15:38:10.580Z,55.84
2018-12-04T15:40:38.336Z,55.81
2018-12-04T15:43:06.032Z,55.94
2018-12-04T15:45:33.785Z,55.90
2018-12-04T15:48:01.447Z,55.77
2018-12-04T15:50:29.148Z,56.02
2018-12-04T15:52:56.891Z,55.74
2018-12-04T15:55:24.662Z,55.98
2018-12-04T15:57:52.253Z,55.67
2018-12-04T16:00:19.854Z,55.88
2018-12-04T16:02:47.517Z,55.74
2018-12-04T16:05:15.153Z,55.74
2018-12-04T16:07:42.920Z,55.72
2018-12-04T16:10:13.011Z,55.75
2018-12-04T16:12:40.728Z,55.98
2018-12-04T16:15:08.384Z,55.69
2018-12-04T16:17:36.011Z,55.95
2018-12-04T16:20:04.203Z,55.73
2018-12-04T16:22:31.829Z,56.08
2018-12-04T16:24:59.685Z,55.91
2018-12-04T16:27:27.278Z,55.76
2018-12-04T16:29:54.934Z,56.01
2018-12-04T16:32:22.585Z,56.03
2018-12-04T16:34:50.180Z,55.95
2018-12-04T16:37:17.842Z,55.78
2018-12-04T16:39:45.437Z,55.86
2018-12-04T16:42:13.153Z,55.79
2018-12-04T16:44:40.808Z,56.01
2018-12-04T16:47:08.459Z,55.93
2018-12-04T16:49:36.118Z,55.86
2018-12-04T16:52:03.792Z,56.09
2018-12-04T16:54:31.449Z,55.93
2018-12-04T16:56:59.505Z,56.03
2018-12-04T16:59:27.155Z,56.07
2018-12-04T17:01:54.792Z,56.04
2018-12-04T17:04:22.439Z,56.01
2018-12-04T17:06:50.075Z,56.09
2018-12-04T17:09:17.716Z,56.29
2018-12-04T17:11:45.737Z,56.54
2018-12-04T17:14:13.394Z,56.95
2018-12-04T17:16:41.101Z,56.89
2018-12-04T17:19:09.196Z,57.29
2018-12-04T17:21:36.784Z,57.06
2018-12-04T17:24:04.420Z,57.39
2018-12-04T17:26:32.095Z,57.40
2018-12-04T17:28:59.724Z,57.42
2018-12-04T17:31:27.503Z,57.61
2018-12-04T17:33:55.281Z,57.78
2018-12-04T17:36:22.957Z,57.74
2018-12-04T17:38:50.599Z,57.97
2018-12-04T17:41:18.200Z,57.99
2018-12-04T17:43:46.029Z,57.76
2018-12-04T17:46:13.707Z,57.79
2018-12-04T17:48:41.332Z,57.92
2018-12-04T17:51:09.184Z,57.94
2018-12-04T17:53:36.821Z,57.93
2018-12-04T17:56:04.679Z,57.92
2018-12-04T17:58:33.827Z,58.08
2018-12-04T18:01:01.414Z,58.01
2018-12-04T18:03:29.078Z,57.96
2018-12-04T18:05:56.690Z,58.13
2018-12-04T18:08:24.385Z,58.07
2018-12-04T18:10:51.897Z,58.27
2018-12-04T18:13:19.533Z,58.17
2018-12-04T18:15:47.166Z,58.41
2018-12-04T18:18:14.805Z,58.44
2018-12-04T18:20:42.383Z,57.91
2018-12-04T18:23:10.041Z,57.55
2018-12-04T18:25:37.671Z,57.40
2018-12-04T18:28:05.285Z,57.44
2018-12-04T18:30:33.022Z,57.24
2018-12-04T18:33:00.585Z,57.13
2018-12-04T18:35:28.170Z,57.18
2018-12-04T18:37:55.781Z,56.83
2018-12-04T18:40:23.541Z,57.16
2018-12-04T18:42:51.133Z,57.19
2018-12-04T18:45:18.889Z,57.08
2018-12-04T18:47:46.487Z,57.13
2018-12-04T18:50:14.123Z,57.02
2018-12-04T18:52:41.728Z,57.02
2018-12-04T18:55:11.477Z,57.13
2018-12-04T18:57:39.114Z,57.21
2018-12-04T19:00:07.514Z,56.82
2018-12-04T19:02:35.116Z,57.07
2018-12-04T19:05:02.892Z,56.91
2018-12-04T19:07:30.547Z,57.02
2018-12-04T19:09:58.163Z,56.90
2018-12-04T19:12:25.924Z,57.02
2018-12-04T19:14:53.636Z,57.05
2018-12-04T19:17:21.286Z,56.91
2018-12-04T19:19:48.915Z,57.09
2018-12-04T19:22:16.564Z,56.92
2018-12-04T19:24:44.273Z,57.39
2018-12-04T19:27:11.912Z,57.43
2018-12-04T19:29:39.542Z,57.49
2018-12-04T19:32:07.221Z,57.77
2018-12-04T19:34:34.836Z,57.82
2018-12-04T19:37:02.585Z,57.87
2018-12-04T19:39:30.194Z,57.90
2018-12-04T19:41:58.217Z,57.53
2018-12-04T19:44:26.093Z,57.71
2018-12-04T19:46:53.781Z,57.81
2018-12-04T19:49:21.482Z,57.88
2018-12-04T19:51:49.112Z,57.88
2018-12-04T19:54:16.763Z,57.72
2018-12-04T19:56:45.112Z,57.87
2018-12-04T19:59:13.253Z,57.68
2018-12-04T20:01:41.558Z,57.68
2018-12-04T20:04:09.476Z,57.65
2018-12-04T20:06:37.201Z,57.16
2018-12-04T20:09:07.230Z,57.64
2018-12-04T20:11:34.938Z,57.69
2018-12-04T20:14:02.729Z,57.73
2018-12-04T20:16:30.380Z,57.39
2018-12-04T20:18:58.122Z,57.60
2018-12-04T20:21:25.893Z,57.40
2018-12-04T20:23:53.499Z,57.63
2018-12-04T20:26:21.217Z,57.71
2018-12-04T20:28:48.916Z,57.94
2018-12-04T20:31:16.708Z,57.76
2018-12-04T20:33:44.443Z,57.59
2018-12-04T20:36:12.108Z,57.94
2018-12-04T20:38:40.492Z,57.68
2018-12-04T20:41:08.195Z,57.72
2018-12-04T20:43:35.904Z,57.77
2018-12-04T20:46:06.082Z,57.82
2018-12-04T20:48:33.449Z,57.68
2018-12-04T20:51:01.110Z,57.97
2018-12-04T20:53:28.866Z,57.98
2018-12-04T20:55:56.577Z,58.15
2018-12-04T20:58:24.440Z,57.99
2018-12-04T21:00:52.110Z,58.09
2018-12-04T21:03:19.766Z,58.04
2018-12-04T21:05:47.461Z,58.12
2018-12-04T21:08:15.135Z,58.17
2018-12-04T21:10:43.069Z,58.21
2018-12-04T21:13:14.650Z,58.00
2018-12-04T21:15:42.007Z,58.03
2018-12-04T21:18:09.793Z,58.22
2018-12-04T21:20:37.996Z,57.87
2018-12-04T21:23:05.641Z,57.96
2018-12-04T21:25:34.175Z,57.95
2018-12-04T21:28:07.729Z,57.97
2018-12-04T21:30:41.037Z,58.06
2018-12-04T21:33:14.385Z,58.11
2018-12-04T21:35:47.829Z,58.15
2018-12-04T21:38:21.347Z,57.91
2018-12-04T21:40:54.479Z,58.25
2018-12-04T21:43:28.166Z,58.06
2018-12-04T21:46:01.794Z,58.06
2018-12-04T21:48:29.679Z,58.13
2018-12-04T21:50:57.844Z,58.13
2018-12-04T21:53:27.334Z,57.99
2018-12-04T21:55:55.665Z,58.28
2018-12-04T21:58:23.480Z,58.26
2018-12-04T22:00:51.236Z,58.47
2018-12-04T22:03:18.927Z,58.42
2018-12-04T22:05:46.843Z,58.50
2018-12-04T22:08:15.157Z,58.36
2018-12-04T22:10:42.845Z,57.89
2018-12-04T22:13:10.684Z,57.77
2018-12-04T22:15:38.695Z,58.28
2018-12-04T22:18:06.371Z,58.07
2018-12-04T22:20:34.052Z,58.30
2018-12-04T22:23:01.783Z,58.20
2018-12-04T22:25:29.567Z,58.22
2018-12-04T22:27:57.395Z,58.41
2018-12-04T22:30:25.872Z,58.45
2018-12-04T22:32:53.762Z,58.30
2018-12-04T22:35:21.825Z,58.41
2018-12-04T22:37:50.921Z,58.55
2018-12-04T22:40:19.247Z,58.37
2018-12-04T22:42:46.959Z,58.67
2018-12-04T22:45:20.297Z,58.46
2018-12-04T22:47:47.966Z,58.77
2018-12-04T22:50:15.664Z,58.78
2018-12-04T22:52:43.460Z,58.87
2018-12-04T22:55:11.536Z,59.01
2018-12-04T22:57:39.206Z,58.97
2018-12-04T23:00:13.040Z,59.11
2018-12-04T23:02:40.976Z,58.85
2018-12-04T23:05:09.084Z,58.59
2018-12-04T23:07:36.773Z,58.59
2018-12-04T23:10:05.090Z,58.94
2018-12-04T23:12:33.834Z,58.76
2018-12-04T23:15:02.712Z,58.95
2018-12-04T23:17:30.477Z,58.83
2018-12-04T23:19:58.936Z,58.62
2018-12-04T23:22:27.888Z,58.53
2018-12-04T23:24:56.332Z,58.98
2018-12-04T23:27:24.986Z,58.93
2018-12-04T23:29:54.042Z,59.00
2018-12-04T23:32:21.728Z,59.16
2018-12-04T23:34:50.317Z,59.14
2018-12-04T23:37:18.377Z,58.96
2018-12-04T23:39:47.496Z,58.99
2018-12-04T23:42:15.928Z,58.89
2018-12-04T23:44:44.231Z,58.92
2018-12-04T23:47:12.895Z,58.90
2018-12-04T23:49:40.640Z,59.04
2018-12-04T23:52:15.755Z,58.88
2018-12-04T23:54:43.452Z,59.02
2018-12-04T23:57:12.539Z,58.81
2018-12-04T23:59:40.283Z,59.20
